Axtell, Nebraska
Current Conditions -  °F | °C
As of 1:55 AM on Saturday 20 Dec 2014 (Local Time) from KHDE Reporting Station
Clear Clear  
Wind Chill: -6°   Ceiling: Unl
Heat Index: -2°   Visibility: 10mi
Dew Point: -4°   Wind: 7mph
Humidity: 88%   Direction: 280°W
Pressure: 30.02"   Gusts: NA
Location:  40.48°N, 99.13°W
Report Text: KHDE 200755Z AUTO 28006KT 10SM CLR M02/M04 A3002 RMK AO2 T10201038
Loading
Personal Weather Stations






























Interactive Weather Map New forecast layout! Learn more

10-Day Weather Forecast

Advertisements
Track Severe Weather on mobile